SSEC Globe Logo

Space Science and Engineering Center

Regional Terminal Forecasts

KMSN 052320Z 0600/0624 22008KT P6SM -RA SCT050 OVC080
     FM060600 19006KT P6SM VCSH BKN070 FM061600 21008KT P6SM
     VCSH BKN027 FM061800 23008KT P6SM -SHRA BKN120=
KMKE 060308Z 0603/0706 20010KT P6SM OVC100 FM060800 20006KT
     P6SM VCSH BKN090 FM061500 21011KT P6SM VCSH OVC050
     FM070300 23004KT P6SM SCT200=
KGRB 052320Z 0600/0624 22008G15KT P6SM SCT035 BKN080 TEMPO
     0600/0604 6SM -SHRA BR BKN035 FM060400 21005KT P6SM
     OVC070 FM061300 22008G15KT P6SM BKN025 OVC050 PROB30
     0615/0620 -SHRA FM062200 23006KT P6SM BKN030=
TAF KAUW 052320Z 0600/0624 20008G15KT P6SM SCT020 OVC060
     TEMPO 0600/0603 6SM -SHRA BR BKN020 FM060300 19005KT
     P6SM BKN040 FM060900 18004KT P6SM OVC016 FM061600
     24005KT P6SM BKN022 FM062200 28006KT P6SM SCT030=
TAF AMD KEAU 060341Z 0604/0624 18007KT P6SM -SHRA VCTS
     SCT015 BKN050CB TEMPO 0604/0606 2SM +TSRA BKN012CB
     FM060630 18005KT P6SM SCT015 BKN060 FM061000 VRB03KT
     6SM BR BKN020 FM061200 VRB03KT 5SM BR SCT007 BKN010
     FM061500 VRB03KT P6SM SCT080=
KLSE 052324Z 0600/0624 18007KT P6SM SCT020 BKN120 FM060900
     16005KT 5SM BR SCT050 FM061400 22005KT P6SM SCT100=
KDBQ 052320Z 0600/0624 17009KT P6SM OVC090 FM060800 18007KT
     4SM BR SCT025 BKN080 FM061400 18006KT P6SM OVC100=
TAF TAF AMD KRFD 060309Z 0603/0624 18007KT P6SM BKN070
     FM060600 18006KT P6SM VCSH SCT035 OVC050 TEMPO
     0606/0609 6SM -SHRA FM060900 19010KT 5SM -SHRA VCTS
     BKN040CB FM061200 22010KT P6SM SCT020 BKN035 TEMPO
     0614/0618 BKN020 FM061800 22011KT P6SM BKN035 PROB30
     0619/0622 5SM TSRA BKN035CB=
KORD 060309Z 0603/0706 19008KT P6SM SCT060 BKN100 FM061000
     21010KT 5SM -SHRA VCTS BKN040CB FM061400 22011KT P6SM
     VCSH BKN035 FM061700 22011G17KT P6SM SCT040 BKN090
     PROB30 0621/0701 4SM TSRA OVC035CB FM070100 23010KT
     P6SM FEW040 BKN100=